Time;durP1;ratioP1;P1;durP2;ratioP2;P2;SDS_P1;SDS_P2;PMS_P1;PMS_P2;Temp;Humidity;BMP_temperature;BMP_pressure;BME280_temperature;BME280_humidity;BME280_pressure;Samples;Min_cycle;Max_cycle;Signal;HPM_P1;HPM_P2
2020/12/13 05:02:10;;;;;;;77.13;30.20;;;3.20;99.90;;;;;;5097452;24;180802;-84
2020/12/13 05:04:54;;;;;;;60.43;27.50;;;2.90;99.90;;;;;;4645505;29;180444;-85
2020/12/13 05:07:44;;;;;;;62.87;26.83;;;3.20;99.90;;;;;;4644279;29;179352;-85
2020/12/13 05:10:19;;;;;;;80.17;31.33;;;3.20;99.90;;;;;;4631945;29;178541;-85
2020/12/13 05:13:01;;;;;;;77.97;31.97;;;3.10;99.90;;;;;;4643071;29;184768;-85
2020/12/13 05:15:57;;;;;;;51.03;23.60;;;3.20;99.90;;;;;;4643365;29;177891;-84
2020/12/13 05:18:45;;;;;;;79.53;30.70;;;3.20;99.90;;;;;;4658560;29;179667;-84
2020/12/13 05:22:01;;;;;;;76.87;32.07;;;3.20;99.90;;;;;;4646164;29;179235;-84
2020/12/13 05:24:40;;;;;;;119.10;34.83;;;3.10;99.90;;;;;;4642824;29;183627;-84
2020/12/13 05:27:08;;;;;;;74.80;29.70;;;3.20;99.90;;;;;;4644903;29;182430;-84
2020/12/13 05:29:51;;;;;;;46.73;24.00;;;3.20;99.90;;;;;;4656117;29;178797;-84
2020/12/13 05:32:42;;;;;;;52.60;24.97;;;3.20;99.90;;;;;;4647201;29;178610;-84
2020/12/13 05:35:22;;;;;;;46.37;21.40;;;3.20;99.90;;;;;;4645170;29;181348;-84
2020/12/13 05:38:18;;;;;;;60.40;26.97;;;3.10;99.90;;;;;;4644135;29;178795;-84
2020/12/13 05:40:53;;;;;;;69.93;29.87;;;3.20;99.90;;;;;;4645395;29;179025;-84
2020/12/13 05:43:40;;;;;;;83.27;30.30;;;3.10;99.90;;;;;;4645773;29;176500;-84
2020/12/13 05:46:41;;;;;;;82.73;31.80;;;3.20;99.90;;;;;;4647048;29;182133;-84
2020/12/13 05:49:43;;;;;;;60.40;26.57;;;3.20;99.90;;;;;;4649553;29;179789;-85
2020/12/13 05:52:19;;;;;;;124.27;32.53;;;3.20;99.90;;;;;;4646786;29;181213;-85
2020/12/13 05:54:58;;;;;;;101.03;32.87;;;3.10;99.90;;;;;;4649316;29;178097;-84
2020/12/13 05:57:41;;;;;;;66.17;28.63;;;3.30;99.90;;;;;;4632880;29;179015;-84
2020/12/13 06:00:29;;;;;;;68.57;31.00;;;3.10;99.90;;;;;;4649229;29;182436;-83
2020/12/13 06:03:42;;;;;;;65.27;29.33;;;3.10;99.90;;;;;;4646241;29;180449;-84
2020/12/13 06:06:26;;;;;;;66.20;27.77;;;3.20;99.90;;;;;;4650155;29;177990;-84
2020/12/13 06:09:12;;;;;;;78.80;29.30;;;3.10;99.90;;;;;;4647805;29;179906;-84
2020/12/13 06:11:52;;;;;;;77.23;32.57;;;3.10;99.90;;;;;;4649767;29;181089;-81
2020/12/13 06:14:42;;;;;;;96.43;32.33;;;3.10;99.90;;;;;;4648714;29;178875;-84
2020/12/13 06:17:31;;;;;;;72.20;31.30;;;3.10;99.90;;;;;;4646563;29;178014;-84
2020/12/13 06:20:12;;;;;;;58.80;27.67;;;3.10;99.90;;;;;;4647033;29;184993;-84
2020/12/13 06:23:04;;;;;;;124.73;35.93;;;3.10;99.90;;;;;;4644533;29;183610;-84
2020/12/13 06:25:34;;;;;;;54.30;25.77;;;3.20;99.90;;;;;;4646206;29;178386;-85
2020/12/13 06:28:08;;;;;;;73.00;29.17;;;3.10;99.90;;;;;;4657437;29;179178;-84
2020/12/13 06:30:45;;;;;;;65.57;29.33;;;3.10;99.90;;;;;;4657820;29;179287;-85
2020/12/13 06:33:19;;;;;;;92.57;30.87;;;3.10;99.90;;;;;;4651689;29;178932;-85
2020/12/13 06:36:13;;;;;;;88.60;31.63;;;3.10;99.90;;;;;;4643408;29;179690;-84
2020/12/13 06:39:18;;;;;;;68.70;28.70;;;3.00;99.90;;;;;;4651039;29;176501;-84
2020/12/13 06:42:04;;;;;;;154.27;37.27;;;3.00;99.90;;;;;;4647942;29;178771;-84
2020/12/13 06:45:14;;;;;;;51.23;24.40;;;3.20;99.90;;;;;;4648969;29;208704;-84
2020/12/13 06:48:37;;;;;;;109.90;33.17;;;3.00;99.90;;;;;;4646872;29;182017;-84
2020/12/13 06:51:52;;;;;;;173.27;38.37;;;3.00;99.90;;;;;;4641629;29;178100;-84
2020/12/13 06:54:38;;;;;;;118.93;30.53;;;3.10;99.90;;;;;;4624437;29;180630;-84
2020/12/13 06:57:36;;;;;;;110.50;33.30;;;3.10;99.90;;;;;;4611601;29;178099;-84
2020/12/13 07:00:38;;;;;;;77.43;27.30;;;3.00;99.90;;;;;;4596378;29;178499;-85
2020/12/13 07:06:45;;;;;;;119.80;36.03;;;3.10;99.90;;;;;;4600422;29;182488;-84
2020/12/13 07:09:49;;;;;;;130.73;36.03;;;3.10;99.90;;;;;;4640809;29;178218;-84
2020/12/13 07:12:21;;;;;;;167.03;40.70;;;3.00;99.90;;;;;;4611166;29;178206;-84
2020/12/13 07:14:59;;;;;;;77.63;31.93;;;3.10;99.90;;;;;;4626118;29;178172;-84
2020/12/13 07:17:49;;;;;;;136.87;36.40;;;3.10;99.90;;;;;;4554618;30;182633;-84
2020/12/13 07:20:30;;;;;;;267.33;45.50;;;3.10;99.90;;;;;;4557228;30;181320;-84
2020/12/13 07:23:18;;;;;;;79.30;31.83;;;3.10;99.90;;;;;;4557465;30;178490;-84
2020/12/13 07:25:56;;;;;;;83.07;33.53;;;3.10;99.90;;;;;;4520476;30;178777;-84
2020/12/13 07:28:55;;;;;;;220.97;45.07;;;3.00;99.90;;;;;;4558569;30;179407;-84
2020/12/13 07:32:06;;;;;;;161.97;37.43;;;3.30;99.90;;;;;;4557468;30;179080;-85
2020/12/13 07:45:11;;;;;;;233.67;43.37;;;3.30;99.90;;;;;;4568797;30;207310;-84
2020/12/13 07:48:36;;;;;;;254.17;45.03;;;3.20;99.90;;;;;;4593101;29;182837;-84
2020/12/13 07:51:48;;;;;;;160.30;37.17;;;3.20;99.90;;;;;;4624786;29;180401;-78
2020/12/13 07:54:48;;;;;;;380.70;56.43;;;3.10;99.90;;;;;;4629924;29;179369;-82
2020/12/13 07:57:32;;;;;;;219.17;44.00;;;3.30;99.90;;;;;;4649868;29;208004;-84
2020/12/13 08:00:38;;;;;;;152.23;39.60;;;3.20;99.90;;;;;;4584469;30;179041;-83
2020/12/13 08:03:56;;;;;;;;;;;;;;;;;;;;;
2020/12/13 08:06:38;;;;;;;229.50;43.23;;;3.20;99.90;;;;;;4577038;30;182399;-83
2020/12/13 08:09:25;;;;;;;198.53;42.50;;;3.20;99.90;;;;;;4590677;30;179115;-83
2020/12/13 08:12:13;;;;;;;78.80;33.07;;;3.20;99.90;;;;;;4585756;30;183000;-83
2020/12/13 08:14:57;;;;;;;137.83;37.93;;;3.20;99.90;;;;;;4586797;30;178808;-83
2020/12/13 08:17:29;;;;;;;119.50;36.13;;;3.30;99.90;;;;;;4575690;30;186087;-83
2020/12/13 08:20:47;;;;;;;79.67;33.73;;;3.00;99.90;;;;;;4577781;30;185064;-83
2020/12/13 08:23:19;;;;;;;83.87;34.27;;;3.20;99.90;;;;;;4589596;30;178272;-82
2020/12/13 08:26:05;;;;;;;116.20;34.83;;;3.30;99.90;;;;;;4576080;30;179536;-83
2020/12/13 08:28:40;;;;;;;92.10;34.27;;;3.30;99.90;;;;;;4592362;30;179111;-83
2020/12/13 08:31:44;;;;;;;102.00;36.47;;;3.30;99.90;;;;;;4594312;30;178197;-84
2020/12/13 08:34:32;;;;;;;85.63;34.03;;;3.30;99.90;;;;;;4587201;30;178753;-83
2020/12/13 08:37:47;;;;;;;123.33;38.97;;;3.30;99.90;;;;;;4604591;29;176670;-84
2020/12/13 08:41:24;;;;;;;117.93;36.70;;;3.10;99.90;;;;;;4646425;29;182419;-82
2020/12/13 08:44:04;;;;;;;112.73;37.30;;;3.30;99.90;;;;;;4651677;29;179826;-83
2020/12/13 08:46:44;;;;;;;169.67;39.57;;;3.30;99.90;;;;;;4658506;29;182025;-83
2020/12/13 08:49:51;;;;;;;76.27;32.43;;;3.30;99.90;;;;;;4632309;29;178690;-83
2020/12/13 08:52:36;;;;;;;73.63;32.57;;;3.40;99.90;;;;;;4627778;29;180683;-84
2020/12/13 08:55:27;;;;;;;76.27;33.43;;;3.40;99.90;;;;;;4629801;29;179102;-83
2020/12/13 08:58:03;;;;;;;93.90;34.80;;;3.60;99.90;;;;;;4643279;29;178037;-82
2020/12/13 09:00:49;;;;;;;76.80;32.53;;;3.40;99.90;;;;;;4647898;29;177985;-82
2020/12/13 09:04:13;;;;;;;76.27;32.70;;;3.40;99.90;;;;;;4636002;29;180433;-83
2020/12/13 09:10:52;;;;;;;79.60;32.43;;;3.10;99.90;;;;;;4649432;29;178183;-83
2020/12/13 09:13:55;;;;;;;73.50;32.90;;;3.40;99.90;;;;;;4646148;29;178062;-83
2020/12/13 09:17:07;;;;;;;72.10;30.80;;;3.60;99.90;;;;;;4644633;29;211238;-83
2020/12/13 09:20:30;;;;;;;80.63;31.60;;;3.40;99.90;;;;;;4641273;29;185758;-82
2020/12/13 09:23:38;;;;;;;72.33;32.53;;;3.40;99.90;;;;;;4646472;29;179110;-82
2020/12/13 09:27:07;;;;;;;69.93;31.83;;;3.30;99.90;;;;;;4646076;29;179059;-83
2020/12/13 09:30:20;;;;;;;64.70;29.80;;;3.20;99.90;;;;;;4632014;29;179016;-83
2020/12/13 09:39:49;;;;;;;64.27;30.57;;;3.30;99.90;;;;;;4647890;29;176785;-83
2020/12/13 09:42:29;;;;;;;65.23;29.80;;;3.50;99.90;;;;;;4646207;29;180224;-83
2020/12/13 09:45:11;;;;;;;62.13;28.67;;;3.40;99.90;;;;;;4626581;29;178853;-83
2020/12/13 09:47:57;;;;;;;64.90;29.97;;;3.40;99.90;;;;;;4639946;29;187711;-82
2020/12/13 09:50:53;;;;;;;60.13;30.50;;;3.40;99.90;;;;;;4647367;29;178018;-82
2020/12/13 09:54:25;;;;;;;65.90;29.87;;;3.50;99.90;;;;;;4603697;29;179502;-82
2020/12/13 09:57:39;;;;;;;;;;;;;;;;;;;;;
2020/12/13 10:00:30;;;;;;;66.53;27.83;;;3.40;99.90;;;;;;4634581;29;178261;-82
2020/12/13 10:03:54;;;;;;;65.57;28.93;;;3.20;99.90;;;;;;4647243;29;179396;-83
2020/12/13 10:06:43;;;;;;;106.10;30.70;;;3.40;99.90;;;;;;4642362;29;181212;-83
2020/12/13 10:09:28;;;;;;;65.70;29.33;;;3.40;99.90;;;;;;4647563;29;178988;-83
2020/12/13 10:12:31;;;;;;;63.97;27.63;;;3.60;99.90;;;;;;4639996;29;178394;-82
2020/12/13 10:15:24;;;;;;;94.03;30.83;;;3.40;99.90;;;;;;4653987;29;178332;-81
2020/12/13 10:18:13;;;;;;;73.33;30.47;;;3.40;99.90;;;;;;4621777;29;184649;-81
2020/12/13 10:21:01;;;;;;;65.53;28.80;;;3.40;99.90;;;;;;4642987;29;185603;-82
2020/12/13 10:23:37;;;;;;;68.00;28.90;;;3.40;99.90;;;;;;4645687;29;178613;-82
2020/12/13 10:26:30;;;;;;;77.03;29.97;;;3.40;99.90;;;;;;4646828;29;178295;-81
2020/12/13 10:29:15;;;;;;;78.10;28.83;;;3.30;99.90;;;;;;4643427;29;182143;-81
2020/12/13 10:31:59;;;;;;;93.07;31.60;;;3.40;99.90;;;;;;4642308;29;179643;-81
2020/12/13 10:34:55;;;;;;;69.93;29.97;;;3.50;99.90;;;;;;4643779;29;178627;-80
2020/12/13 10:37:34;;;;;;;67.00;27.53;;;3.50;99.90;;;;;;4646484;29;176427;-82
2020/12/13 10:40:10;;;;;;;70.40;29.67;;;3.40;99.90;;;;;;4644703;29;179332;-82
2020/12/13 10:42:48;;;;;;;85.47;31.63;;;3.40;99.90;;;;;;4641831;29;180033;-82
2020/12/13 10:45:34;;;;;;;83.40;30.10;;;3.50;99.90;;;;;;4641735;29;181868;-81
2020/12/13 10:48:24;;;;;;;59.67;29.23;;;3.40;99.90;;;;;;4630385;29;179547;-81
2020/12/13 10:51:04;;;;;;;67.40;30.13;;;3.50;99.90;;;;;;4644355;29;179045;-82
2020/12/13 10:53:51;;;;;;;70.37;29.37;;;3.50;99.90;;;;;;4635525;29;181604;-82
2020/12/13 10:56:32;;;;;;;65.20;27.77;;;3.40;99.90;;;;;;4646431;29;178731;-82
2020/12/13 10:59:11;;;;;;;84.03;32.00;;;3.60;99.90;;;;;;4644127;29;179406;-82
2020/12/13 11:01:53;;;;;;;56.63;27.47;;;3.50;99.90;;;;;;4646630;29;179169;-81
2020/12/13 11:04:44;;;;;;;64.43;29.13;;;3.70;99.90;;;;;;4649122;29;181887;-81
2020/12/13 11:07:21;;;;;;;79.03;29.70;;;3.50;99.90;;;;;;4647887;29;179343;-82
2020/12/13 11:10:09;;;;;;;58.23;28.03;;;3.50;99.90;;;;;;4649199;29;178315;-82
2020/12/13 11:12:49;;;;;;;54.63;26.43;;;3.20;99.90;;;;;;4644149;29;186102;-82
2020/12/13 11:15:33;;;;;;;58.57;29.93;;;3.50;99.90;;;;;;4650022;29;181910;-82
2020/12/13 11:18:09;;;;;;;53.77;27.57;;;3.60;99.90;;;;;;4651171;29;179376;-81
2020/12/13 11:20:48;;;;;;;54.00;25.70;;;3.60;99.90;;;;;;4648766;29;178659;-82
2020/12/13 11:23:30;;;;;;;61.70;27.90;;;3.60;99.90;;;;;;4647861;29;178329;-82
2020/12/13 11:26:11;;;;;;;58.70;28.20;;;3.60;99.90;;;;;;4646282;29;178129;-82
2020/12/13 11:28:44;;;;;;;52.33;27.13;;;3.40;99.90;;;;;;4647021;29;179022;-82
2020/12/13 11:31:22;;;;;;;52.87;26.03;;;3.60;99.90;;;;;;4646422;29;176797;-82
2020/12/13 11:34:16;;;;;;;51.80;26.07;;;3.80;99.90;;;;;;4646552;29;180271;-82
2020/12/13 11:44:59;;;;;;;50.07;25.67;;;3.60;99.90;;;;;;4654543;29;179277;-83
2020/12/13 11:47:49;;;;;;;86.93;28.63;;;3.60;99.90;;;;;;4597087;30;179652;-82
2020/12/13 11:50:50;;;;;;;101.50;28.43;;;3.70;99.90;;;;;;4610901;30;178254;-82
2020/12/13 11:54:03;;;;;;;71.30;28.17;;;3.60;99.90;;;;;;4567081;30;182924;-82
2020/12/13 11:57:25;;;;;;;;;;;;;;;;;;;;;
2020/12/13 12:00:25;;;;;;;85.87;29.37;;;3.70;99.90;;;;;;4592933;30;182536;-82
2020/12/13 12:03:28;;;;;;;46.60;26.13;;;3.70;99.90;;;;;;4592063;30;206430;-83
2020/12/13 12:05:56;;;;;;;105.73;29.37;;;3.70;99.90;;;;;;4606688;30;178627;-83
2020/12/13 12:08:57;;;;;;;51.63;25.83;;;3.60;99.90;;;;;;4610164;30;178147;-82
2020/12/13 12:11:32;;;;;;;55.37;28.57;;;3.70;99.90;;;;;;4578322;30;186196;-82
2020/12/13 12:14:16;;;;;;;49.73;25.87;;;3.70;99.90;;;;;;4610591;30;181259;-81
2020/12/13 12:17:06;;;;;;;67.97;26.27;;;3.90;99.90;;;;;;4610785;30;179440;-81
2020/12/13 12:19:56;;;;;;;75.13;26.07;;;3.70;99.90;;;;;;4649110;29;177973;-82
2020/12/13 12:22:50;;;;;;;56.33;25.97;;;3.70;99.90;;;;;;4645718;29;179757;-83
2020/12/13 12:25:35;;;;;;;52.07;25.93;;;3.70;99.90;;;;;;4646776;29;180754;-83
2020/12/13 12:28:07;;;;;;;48.30;24.87;;;3.70;99.90;;;;;;4652164;29;177929;-82
2020/12/13 12:35:44;;;;;;;50.00;24.40;;;3.70;99.90;;;;;;4656348;29;179422;-82
2020/12/13 12:38:27;;;;;;;44.67;23.47;;;3.70;99.90;;;;;;4678014;29;179064;-83
2020/12/13 12:41:24;;;;;;;52.40;24.13;;;3.70;99.90;;;;;;4654785;29;181631;-82
2020/12/13 12:44:47;;;;;;;;;;;;;;;;;;;;;
2020/12/13 12:47:32;;;;;;;52.87;26.07;;;3.70;99.90;;;;;;4622914;29;210468;-83
2020/12/13 12:50:44;;;;;;;60.77;26.50;;;3.60;99.90;;;;;;4627603;29;206775;-83
2020/12/13 12:53:34;;;;;;;50.23;25.63;;;3.70;99.90;;;;;;4574303;30;178183;-83
2020/12/13 12:56:26;;;;;;;44.80;23.83;;;3.80;99.90;;;;;;4565998;30;178734;-83
2020/12/13 12:59:35;;;;;;;52.77;23.87;;;3.50;99.90;;;;;;4593273;30;181026;-82
2020/12/13 13:02:21;;;;;;;46.73;24.03;;;3.80;99.90;;;;;;4604428;30;179828;-83
2020/12/13 13:05:11;;;;;;;48.53;25.13;;;3.90;99.90;;;;;;4596944;30;179001;-82
2020/12/13 13:11:53;;;;;;;44.13;23.23;;;4.00;99.90;;;;;;4560532;30;183807;-83
2020/12/13 13:14:54;;;;;;;47.87;24.53;;;3.60;99.90;;;;;;4556349;30;183127;-82
2020/12/13 13:18:00;;;;;;;47.53;24.63;;;3.80;99.90;;;;;;4559758;30;178885;-83
2020/12/13 13:21:01;;;;;;;51.63;24.73;;;3.70;99.90;;;;;;4587056;30;178464;-83
2020/12/13 13:23:59;;;;;;;54.10;24.70;;;3.50;99.90;;;;;;4622613;29;179167;-83
2020/12/13 13:27:04;;;;;;;;;;;;;;;;;;;;;
2020/12/13 13:29:51;;;;;;;54.00;24.20;;;3.70;99.90;;;;;;4645940;29;179389;-82
2020/12/13 13:32:45;;;;;;;49.23;24.13;;;3.80;99.90;;;;;;4646893;29;179178;-82
2020/12/13 13:35:50;;;;;;;48.83;25.00;;;3.80;99.90;;;;;;4625980;29;180259;-82
2020/12/13 13:38:50;;;;;;;49.03;24.07;;;3.70;99.90;;;;;;4623492;29;178647;-82
2020/12/13 13:41:42;;;;;;;45.97;22.47;;;3.70;99.90;;;;;;4622691;29;182413;-83
2020/12/13 13:44:46;;;;;;;53.17;25.60;;;3.70;99.90;;;;;;4624943;29;179070;-82
2020/12/13 13:50:49;;;;;;;42.00;21.80;;;3.70;99.90;;;;;;4623605;29;178906;-83
2020/12/13 13:53:43;;;;;;;41.80;23.77;;;3.70;99.90;;;;;;4600147;29;180005;-83
2020/12/13 13:56:41;;;;;;;42.70;23.40;;;3.70;99.90;;;;;;4632465;29;178422;-83
2020/12/13 14:04:01;;;;;;;43.87;25.17;;;3.70;99.90;;;;;;4548927;30;182718;-83
2020/12/13 14:10:26;;;;;;;52.00;21.40;;;3.40;99.90;;;;;;4591694;30;179388;-84
2020/12/13 14:13:19;;;;;;;76.80;23.27;;;3.60;99.90;;;;;;4552979;30;184445;-84
2020/12/13 14:15:54;;;;;;;48.27;21.33;;;3.70;99.90;;;;;;4558294;30;183319;-83
2020/12/13 14:18:32;;;;;;;63.40;23.33;;;3.70;99.90;;;;;;4549252;30;179060;-84
2020/12/13 14:21:30;;;;;;;143.50;30.27;;;3.60;99.90;;;;;;4574826;30;180261;-83
2020/12/13 14:24:46;;;;;;;64.43;23.33;;;3.70;99.90;;;;;;4571743;30;179821;-83
2020/12/13 14:27:22;;;;;;;79.53;24.90;;;3.60;99.90;;;;;;4561316;30;178857;-84
2020/12/13 14:30:31;;;;;;;67.13;23.77;;;3.40;99.90;;;;;;4559348;30;179093;-84
2020/12/13 14:33:34;;;;;;;69.80;23.77;;;3.70;99.90;;;;;;4563363;30;179076;-83
2020/12/13 14:36:21;;;;;;;53.47;21.83;;;3.70;99.90;;;;;;4568412;30;207662;-84
2020/12/13 14:39:15;;;;;;;33.30;19.73;;;3.60;99.90;;;;;;4539213;30;182075;-84
2020/12/13 14:42:29;;;;;;;63.33;21.77;;;3.60;99.90;;;;;;4559715;30;199754;-84
2020/12/13 14:45:14;;;;;;;45.63;22.87;;;3.60;99.90;;;;;;4574201;30;180943;-85
2020/12/13 14:51:11;;;;;;;39.30;21.23;;;3.60;99.90;;;;;;4566620;30;180869;-85
2020/12/13 14:53:45;;;;;;;41.67;22.63;;;3.80;99.90;;;;;;4541375;30;179199;-85
2020/12/13 14:56:48;;;;;;;44.07;22.17;;;3.70;99.90;;;;;;4565756;30;178847;-84
2020/12/13 14:59:48;;;;;;;42.13;22.37;;;4.00;99.90;;;;;;4578137;30;179228;-84
2020/12/13 15:02:42;;;;;;;57.83;25.97;;;3.70;99.90;;;;;;4558715;30;180546;-84
2020/12/13 15:05:27;;;;;;;55.10;23.70;;;3.60;99.90;;;;;;4574647;30;178783;-85
2020/12/13 15:08:22;;;;;;;48.20;21.20;;;3.70;99.90;;;;;;4571566;30;199623;-84
2020/12/13 15:10:59;;;;;;;48.30;21.93;;;3.20;99.90;;;;;;4570688;30;182880;-84
2020/12/13 15:14:28;;;;;;;115.97;28.87;;;3.50;99.90;;;;;;4560435;30;180476;-85
2020/12/13 15:19:52;;;;;;;58.37;22.00;;;3.50;99.90;;;;;;4567578;30;179582;-85
2020/12/13 15:22:30;;;;;;;42.10;20.90;;;3.50;99.90;;;;;;4569987;30;180170;-83
2020/12/13 15:25:01;;;;;;;52.90;29.30;;;3.60;99.90;;;;;;4570712;30;180474;-84
2020/12/13 15:27:31;;;;;;;46.77;22.93;;;3.50;99.90;;;;;;4572523;30;179710;-83
2020/12/13 15:30:17;;;;;;;45.07;22.40;;;3.60;99.90;;;;;;4560848;30;177046;-84
2020/12/13 15:32:59;;;;;;;;;;;;;;;;;;;;;
2020/12/13 15:35:59;;;;;;;51.63;24.33;;;3.60;99.90;;;;;;4513987;30;178857;-81
2020/12/13 15:38:36;;;;;;;42.47;23.13;;;3.50;99.90;;;;;;4556512;30;182209;-83
2020/12/13 15:41:18;;;;;;;42.90;23.27;;;3.80;99.90;;;;;;4564027;30;179095;-84
2020/12/13 15:44:22;;;;;;;98.43;27.43;;;3.50;99.90;;;;;;4558642;30;182157;-84
2020/12/13 15:46:56;;;;;;;59.50;23.63;;;3.50;99.90;;;;;;4561046;30;181858;-84
2020/12/13 15:49:38;;;;;;;56.53;23.33;;;3.40;99.90;;;;;;4548691;30;178111;-83
2020/12/13 15:52:24;;;;;;;38.20;19.33;;;3.50;99.90;;;;;;4580450;30;178542;-83
2020/12/13 15:59:02;;;;;;;101.13;26.00;;;3.40;99.90;;;;;;4561331;30;179861;-84
2020/12/13 16:05:24;;;;;;;54.37;21.40;;;3.20;99.90;;;;;;4570778;30;181592;-83
2020/12/13 16:08:22;;;;;;;44.20;23.67;;;3.50;99.90;;;;;;4558481;30;185706;-83
2020/12/13 16:11:27;;;;;;;43.73;22.40;;;3.50;99.90;;;;;;4556645;30;182588;-83
2020/12/13 16:14:34;;;;;;;42.93;22.50;;;3.80;99.90;;;;;;4548011;30;178323;-82
2020/12/13 16:17:25;;;;;;;209.87;126.30;;;3.40;99.90;;;;;;4527964;30;178408;-82
2020/12/13 16:20:29;;;;;;;;;;;;;;;;;;;;;
2020/12/13 16:23:47;;;;;;;42.80;23.40;;;3.70;99.90;;;;;;4522804;30;180928;-83
2020/12/13 16:30:55;;;;;;;;;;;;;;;;;;;;;
2020/12/13 16:33:29;;;;;;;75.83;24.10;;;3.40;99.90;;;;;;4575717;30;180246;-84
2020/12/13 16:36:12;;;;;;;42.17;22.03;;;3.60;99.90;;;;;;4568203;30;179165;-83
2020/12/13 16:39:44;;;;;;;38.60;19.47;;;3.40;99.90;;;;;;4565746;30;181641;-82
2020/12/13 16:45:20;;;;;;;100.83;23.77;;;3.50;99.90;;;;;;4575806;30;178986;-82
2020/12/13 16:48:04;;;;;;;33.20;18.30;;;3.40;99.90;;;;;;4575499;30;178153;-83
2020/12/13 16:54:14;;;;;;;34.03;18.47;;;3.40;99.90;;;;;;4571419;30;179756;-83
2020/12/13 16:57:20;;;;;;;56.83;21.10;;;3.40;99.90;;;;;;4591237;30;178866;-83
2020/12/13 17:00:08;;;;;;;49.60;19.20;;;3.40;99.90;;;;;;4586262;30;179396;-84
2020/12/13 17:02:44;;;;;;;38.83;19.60;;;3.30;99.90;;;;;;4592038;30;178535;-84
2020/12/13 17:05:20;;;;;;;52.57;20.90;;;3.30;99.90;;;;;;4561224;30;178424;-84
2020/12/13 17:08:16;;;;;;;38.23;20.60;;;3.30;99.90;;;;;;4561912;30;183914;-84
2020/12/13 17:11:01;;;;;;;39.20;19.87;;;3.30;99.90;;;;;;4560968;30;184891;-80
2020/12/13 17:14:09;;;;;;;127.27;27.70;;;3.10;99.90;;;;;;4568077;30;178220;-80
2020/12/13 17:17:39;;;;;;;;;;;;;;;;;;;;;
2020/12/13 17:20:48;;;;;;;133.87;29.40;;;3.30;99.90;;;;;;4575606;30;179101;-84
2020/12/13 17:23:54;;;;;;;116.27;28.47;;;3.60;99.90;;;;;;4522057;30;180540;-83
2020/12/13 17:26:40;;;;;;;;;;;;;;;;;;;;;
2020/12/13 17:29:49;;;;;;;43.17;21.93;;;3.20;99.90;;;;;;4571775;30;178172;-82
2020/12/13 17:32:32;;;;;;;66.27;23.73;;;3.20;99.90;;;;;;4575360;30;181315;-80
2020/12/13 17:35:50;;;;;;;63.80;23.77;;;3.10;99.90;;;;;;4568167;30;179190;-82
2020/12/13 17:38:31;;;;;;;103.27;28.03;;;3.30;99.90;;;;;;4558499;30;181582;-82
2020/12/13 17:41:47;;;;;;;;;;;;;;;;;;;;;
2020/12/13 17:44:23;;;;;;;65.83;23.20;;;3.30;99.90;;;;;;4570307;30;181727;-83
2020/12/13 17:47:31;;;;;;;96.63;28.17;;;3.30;99.90;;;;;;4548688;30;178929;-83
2020/12/13 17:50:51;;;;;;;72.60;24.20;;;3.20;99.90;;;;;;4572400;30;178769;-83
2020/12/13 17:56:53;;;;;;;114.33;26.67;;;3.30;99.90;;;;;;4575070;30;178650;-84
2020/12/13 18:02:54;;;;;;;142.47;29.03;;;3.30;99.90;;;;;;4532850;30;179037;-84
2020/12/13 18:05:51;;;;;;;76.43;23.97;;;3.70;99.90;;;;;;4570153;30;179539;-83
2020/12/13 18:09:01;;;;;;;46.07;20.67;;;3.60;99.90;;;;;;4566942;30;183193;-84
2020/12/13 18:15:39;;;;;;;61.23;21.60;;;2.90;99.90;;;;;;4516204;30;178420;-85
2020/12/13 18:18:33;;;;;;;81.97;23.00;;;3.50;99.90;;;;;;4571994;30;178173;-85
2020/12/13 18:21:37;;;;;;;63.13;21.23;;;3.40;99.90;;;;;;4564371;30;179145;-85
2020/12/13 18:24:24;;;;;;;46.53;18.83;;;3.30;99.90;;;;;;4582178;29;210488;-83
2020/12/13 18:27:32;;;;;;;101.73;25.97;;;3.50;99.90;;;;;;4642102;29;178479;-82
2020/12/13 18:41:24;;;;;;;44.87;18.53;;;3.20;99.90;;;;;;4657752;29;200561;-84
2020/12/13 18:45:01;;;;;;;58.37;21.33;;;3.40;99.90;;;;;;4582208;29;178758;-84
2020/12/13 18:48:07;;;;;;;60.60;21.53;;;3.30;99.90;;;;;;4639296;29;208317;-83
2020/12/13 18:51:13;;;;;;;126.27;27.03;;;3.40;99.90;;;;;;4609854;29;179486;-85
2020/12/13 18:54:41;;;;;;;112.77;24.03;;;3.40;99.90;;;;;;4615490;29;179470;-86
2020/12/13 18:57:49;;;;;;;115.80;28.63;;;3.50;99.90;;;;;;4625514;29;178244;-85
2020/12/13 19:07:31;;;;;;;47.13;21.67;;;3.30;99.90;;;;;;4613504;29;178191;-85
2020/12/13 19:10:36;;;;;;;57.53;23.47;;;3.30;99.90;;;;;;4576830;30;181897;-85
2020/12/13 19:17:24;;;;;;;113.13;31.73;;;3.30;99.90;;;;;;4636688;29;181001;-84
2020/12/13 19:21:28;;;;;;;61.97;23.10;;;3.40;99.90;;;;;;4650309;29;178524;-84
2020/12/13 19:24:14;;;;;;;79.23;29.27;;;3.40;99.90;;;;;;4655142;29;178740;-84
2020/12/13 19:28:06;;;;;;;135.10;37.77;;;3.50;99.90;;;;;;4657465;29;179370;-84
2020/12/13 19:35:07;;;;;;;95.20;32.23;;;3.30;99.90;;;;;;4650312;29;198236;-84
2020/12/13 19:38:31;;;;;;;180.43;45.83;;;3.50;99.90;;;;;;4607983;30;197179;-85
2020/12/13 19:41:31;;;;;;;152.73;69.77;;;3.40;99.90;;;;;;4624571;29;180424;-82
2020/12/13 19:44:31;;;;;;;59.63;31.23;;;3.40;99.90;;;;;;4564238;30;179017;-84
2020/12/13 19:50:47;;;;;;;40.17;22.00;;;3.40;99.90;;;;;;4611441;29;199095;-83
2020/12/13 19:53:31;;;;;;;55.93;24.30;;;3.70;99.90;;;;;;4598538;30;178822;-83
2020/12/13 19:56:33;;;;;;;48.17;21.87;;;3.40;99.90;;;;;;4612895;30;178978;-83
2020/12/13 19:59:27;;;;;;;78.40;25.23;;;3.40;99.90;;;;;;4612954;29;178670;-83
2020/12/13 20:02:24;;;;;;;105.20;28.20;;;3.40;99.90;;;;;;4629443;29;178477;-82
2020/12/13 20:09:04;;;;;;;;;;;;;;;;;;;;;
2020/12/13 20:11:38;;;;;;;51.53;22.77;;;3.40;99.90;;;;;;4613113;30;178251;-82
2020/12/13 20:18:21;;;;;;;67.47;24.43;;;3.40;99.90;;;;;;4663575;29;185506;-82
2020/12/13 20:38:48;;;;;;;44.20;20.10;;;3.40;99.90;;;;;;4636387;29;178129;-81
2020/12/13 20:44:13;;;;;;;98.53;25.93;;;3.40;99.90;;;;;;4643419;29;180918;-80
2020/12/13 21:20:33;;;;;;;42.33;20.23;;;3.40;99.90;;;;;;4648296;29;181047;-79
2020/12/13 21:23:37;;;;;;;38.10;20.40;;;3.40;99.90;;;;;;4644013;29;178713;-80
2020/12/13 21:45:04;;;;;;;38.47;19.23;;;3.40;99.90;;;;;;4636909;29;179471;-80
2020/12/13 21:48:40;;;;;;;40.73;19.80;;;3.40;99.90;;;;;;4638120;29;181969;-80
2020/12/13 21:51:26;;;;;;;47.63;20.97;;;3.40;99.90;;;;;;4644889;29;179243;-80
2020/12/13 21:54:44;;;;;;;44.37;20.57;;;3.40;99.90;;;;;;4610520;29;178705;-80
2020/12/13 21:57:51;;;;;;;38.73;18.93;;;3.40;99.90;;;;;;4583694;30;179912;-80
2020/12/13 22:23:43;;;;;;;44.30;21.27;;;3.80;99.90;;;;;;4608406;30;183533;-80
2020/12/13 22:29:36;;;;;;;41.30;21.50;;;3.50;99.90;;;;;;4603440;29;178685;-80
